Time;durP1;ratioP1;P1;durP2;ratioP2;P2;SDS_P1;SDS_P2;PMS_P1;PMS_P2;Temp;Humidity;BMP_temperature;BMP_pressure;BME280_temperature;BME280_humidity;BME280_pressure;Samples;Min_cycle;Max_cycle;Signal;HPM_P1;HPM_P2
2022/10/26 00:02:42;;;;;;;8.70;1.98;;;;;;;;;;8258024;28;20045;-59
2022/10/26 00:06:42;;;;;;;3.95;1.88;;;;;;;;;;8259924;28;20400;-58
2022/10/26 00:10:42;;;;;;;5.78;2.33;;;;;;;;;;8259616;28;20022;-59
2022/10/26 00:14:42;;;;;;;6.85;2.70;;;;;;;;;;8258750;28;20722;-59
2022/10/26 00:18:43;;;;;;;7.35;2.17;;;;;;;;;;8262393;28;20041;-59
2022/10/26 00:22:43;;;;;;;7.13;2.47;;;;;;;;;;8260369;28;20851;-60
2022/10/26 00:26:43;;;;;;;7.07;3.10;;;;;;;;;;8260361;28;20119;-60
2022/10/26 00:30:43;;;;;;;9.10;3.28;;;;;;;;;;8263084;28;20101;-59
2022/10/26 00:34:43;;;;;;;9.88;3.30;;;;;;;;;;8266888;28;20034;-60
2022/10/26 00:38:51;;;;;;;11.32;3.00;;;;;;;;;;8267937;28;20021;-60
2022/10/26 00:42:51;;;;;;;9.93;2.55;;;;;;;;;;8266992;28;20029;-60
2022/10/26 00:46:51;;;;;;;7.45;2.60;;;;;;;;;;8267262;28;20034;-60
2022/10/26 00:50:52;;;;;;;7.07;2.75;;;;;;;;;;8265110;28;20036;-60
2022/10/26 00:54:53;;;;;;;7.35;2.88;;;;;;;;;;8268003;28;20033;-60
2022/10/26 00:58:54;;;;;;;6.18;2.42;;;;;;;;;;8266432;28;20746;-60
2022/10/26 01:02:56;;;;;;;10.20;2.58;;;;;;;;;;8264166;28;20173;-61
2022/10/26 01:06:56;;;;;;;7.82;3.05;;;;;;;;;;8264149;28;20345;-60
2022/10/26 01:10:57;;;;;;;7.70;2.25;;;;;;;;;;8265557;28;20052;-60
2022/10/26 01:14:57;;;;;;;8.18;3.15;;;;;;;;;;8265537;28;20025;-60
2022/10/26 01:19:09;;;;;;;7.15;2.97;;;;;;;;;;8265516;28;20196;-61
2022/10/26 01:23:12;;;;;;;7.68;2.80;;;;;;;;;;8263594;28;20093;-60
2022/10/26 01:27:18;;;;;;;4.93;2.50;;;;;;;;;;8261063;28;20026;-61
2022/10/26 01:31:33;;;;;;;6.70;2.13;;;;;;;;;;8262772;28;20572;-60
2022/10/26 01:35:37;;;;;;;7.13;2.20;;;;;;;;;;8262944;28;20069;-61
2022/10/26 01:39:40;;;;;;;8.18;2.33;;;;;;;;;;8263168;28;20223;-61
2022/10/26 01:43:45;;;;;;;4.23;2.43;;;;;;;;;;8263943;28;20028;-61
2022/10/26 01:47:46;;;;;;;3.80;2.22;;;;;;;;;;8265649;28;20277;-61
2022/10/26 01:51:47;;;;;;;5.43;2.22;;;;;;;;;;8264483;28;20473;-61
2022/10/26 01:55:49;;;;;;;5.20;1.90;;;;;;;;;;8263161;28;20111;-61
2022/10/26 02:00:05;;;;;;;5.05;2.00;;;;;;;;;;8263887;28;20060;-61
2022/10/26 02:04:14;;;;;;;5.97;2.33;;;;;;;;;;8263747;28;20261;-61
2022/10/26 02:08:17;;;;;;;4.03;2.08;;;;;;;;;;8266038;28;20025;-60
2022/10/26 02:12:37;;;;;;;6.10;2.45;;;;;;;;;;8263715;28;20017;-60
2022/10/26 02:16:50;;;;;;;6.00;2.40;;;;;;;;;;8262781;28;20565;-61
2022/10/26 02:20:53;;;;;;;7.60;2.58;;;;;;;;;;8263159;28;20025;-60
2022/10/26 02:24:54;;;;;;;7.32;2.50;;;;;;;;;;8261684;28;20209;-61
2022/10/26 02:28:56;;;;;;;5.53;2.53;;;;;;;;;;8264476;28;21031;-60
2022/10/26 02:32:58;;;;;;;8.00;2.63;;;;;;;;;;8262056;28;20708;-60
2022/10/26 02:36:59;;;;;;;5.70;2.83;;;;;;;;;;8261009;28;20026;-60
2022/10/26 02:41:01;;;;;;;7.07;2.97;;;;;;;;;;8262426;28;20114;-60
2022/10/26 02:45:04;;;;;;;7.88;2.58;;;;;;;;;;8263735;28;20047;-60
2022/10/26 02:49:04;;;;;;;5.15;2.20;;;;;;;;;;8261679;28;20056;-60
2022/10/26 02:53:08;;;;;;;4.93;2.03;;;;;;;;;;8259061;28;20133;-60
2022/10/26 02:57:13;;;;;;;4.32;2.35;;;;;;;;;;8261263;28;20296;-60
2022/10/26 03:01:14;;;;;;;6.35;2.85;;;;;;;;;;8261225;28;20049;-60
2022/10/26 03:05:16;;;;;;;6.00;3.25;;;;;;;;;;8263003;28;20041;-61
2022/10/26 03:09:17;;;;;;;9.73;3.20;;;;;;;;;;8261307;28;20031;-61
2022/10/26 03:13:17;;;;;;;7.22;2.75;;;;;;;;;;8256310;28;20564;-61
2022/10/26 03:17:17;;;;;;;4.65;2.30;;;;;;;;;;8261742;28;20344;-60
2022/10/26 03:21:17;;;;;;;4.10;2.50;;;;;;;;;;8259490;28;20025;-62
2022/10/26 03:25:17;;;;;;;3.72;2.05;;;;;;;;;;8262820;28;20021;-60
2022/10/26 03:29:17;;;;;;;7.85;2.47;;;;;;;;;;8261304;28;20037;-60
2022/10/26 03:33:18;;;;;;;6.00;2.33;;;;;;;;;;8260294;28;21051;-60
2022/10/26 03:37:18;;;;;;;4.28;2.20;;;;;;;;;;8260817;28;20065;-60
2022/10/26 03:41:18;;;;;;;7.65;2.33;;;;;;;;;;8259909;28;20026;-60
2022/10/26 03:45:18;;;;;;;6.88;2.35;;;;;;;;;;8259788;28;20013;-61
2022/10/26 03:49:18;;;;;;;5.53;2.45;;;;;;;;;;8260127;28;20026;-60
2022/10/26 03:53:19;;;;;;;4.72;2.20;;;;;;;;;;8259541;28;20694;-60
2022/10/26 03:57:19;;;;;;;3.78;2.30;;;;;;;;;;8260399;28;20040;-60
2022/10/26 04:01:19;;;;;;;7.63;2.40;;;;;;;;;;8259918;28;20034;-60
2022/10/26 04:05:19;;;;;;;7.07;2.30;;;;;;;;;;8259436;28;20132;-60
2022/10/26 04:09:20;;;;;;;6.57;2.08;;;;;;;;;;8260308;28;20037;-60
2022/10/26 04:13:20;;;;;;;4.28;2.22;;;;;;;;;;8260433;28;20022;-60
2022/10/26 04:17:20;;;;;;;6.38;2.55;;;;;;;;;;8262080;28;20073;-60
2022/10/26 04:21:20;;;;;;;8.95;2.70;;;;;;;;;;8260466;28;20052;-60
2022/10/26 04:25:20;;;;;;;6.55;2.28;;;;;;;;;;8260491;28;20068;-60
2022/10/26 04:29:21;;;;;;;4.78;2.63;;;;;;;;;;8259044;28;20041;-60
2022/10/26 04:33:22;;;;;;;6.13;2.78;;;;;;;;;;8259986;28;20078;-60
2022/10/26 04:37:22;;;;;;;7.40;2.45;;;;;;;;;;8259986;28;20861;-60
2022/10/26 04:41:22;;;;;;;5.05;2.60;;;;;;;;;;8261868;28;20026;-60
2022/10/26 04:45:22;;;;;;;7.50;2.63;;;;;;;;;;8258343;28;20594;-60
2022/10/26 04:49:23;;;;;;;6.70;2.60;;;;;;;;;;8260157;28;20137;-60
2022/10/26 04:53:23;;;;;;;5.20;2.65;;;;;;;;;;8261165;28;21121;-60
2022/10/26 04:57:23;;;;;;;5.97;2.70;;;;;;;;;;8261739;28;20072;-60
2022/10/26 05:01:23;;;;;;;6.68;2.75;;;;;;;;;;8259946;28;20030;-60
2022/10/26 05:05:23;;;;;;;6.45;2.50;;;;;;;;;;8260857;28;20075;-60
2022/10/26 05:09:24;;;;;;;7.65;2.70;;;;;;;;;;8259685;28;20702;-60
2022/10/26 05:13:24;;;;;;;6.70;2.65;;;;;;;;;;8260192;28;20033;-61
2022/10/26 05:17:24;;;;;;;4.38;2.33;;;;;;;;;;8261647;28;20052;-60
2022/10/26 05:21:25;;;;;;;5.60;2.50;;;;;;;;;;8264916;28;20321;-60
2022/10/26 05:25:26;;;;;;;4.23;2.50;;;;;;;;;;8266272;28;20451;-61
2022/10/26 05:29:26;;;;;;;7.00;2.58;;;;;;;;;;8266037;28;20891;-60
2022/10/26 05:33:26;;;;;;;4.20;2.70;;;;;;;;;;8267276;28;20040;-61
2022/10/26 05:37:29;;;;;;;4.85;2.63;;;;;;;;;;8264752;28;20238;-60
2022/10/26 05:41:30;;;;;;;6.20;3.30;;;;;;;;;;8264104;28;20033;-60
2022/10/26 05:45:30;;;;;;;4.40;2.53;;;;;;;;;;8266505;28;20386;-61
2022/10/26 05:49:30;;;;;;;5.63;2.78;;;;;;;;;;8266030;28;20022;-60
2022/10/26 05:53:30;;;;;;;11.75;3.10;;;;;;;;;;8264631;28;20021;-61
2022/10/26 05:57:31;;;;;;;9.45;2.78;;;;;;;;;;8262186;28;20232;-61
2022/10/26 06:01:31;;;;;;;7.70;2.95;;;;;;;;;;8262164;28;20788;-60
2022/10/26 06:05:34;;;;;;;8.38;2.72;;;;;;;;;;8262826;28;20243;-61
2022/10/26 06:09:34;;;;;;;6.03;2.33;;;;;;;;;;8263441;28;20213;-60
2022/10/26 06:13:35;;;;;;;11.27;3.10;;;;;;;;;;8262215;28;20104;-60
2022/10/26 06:17:41;;;;;;;4.38;2.60;;;;;;;;;;8260554;28;20199;-60
2022/10/26 06:21:45;;;;;;;7.68;3.35;;;;;;;;;;8261918;28;20083;-60
2022/10/26 06:26:01;;;;;;;7.70;2.30;;;;;;;;;;8262966;28;20041;-60
2022/10/26 06:30:06;;;;;;;6.82;1.98;;;;;;;;;;8267068;28;20409;-60
2022/10/26 06:34:09;;;;;;;4.32;1.70;;;;;;;;;;8263203;28;20520;-60
2022/10/26 06:38:14;;;;;;;6.18;2.05;;;;;;;;;;8262514;28;20125;-60
2022/10/26 06:42:14;;;;;;;4.63;2.03;;;;;;;;;;8262345;28;20040;-60
2022/10/26 06:46:24;;;;;;;4.15;2.05;;;;;;;;;;8260810;28;20475;-60
2022/10/26 06:50:24;;;;;;;2.58;1.55;;;;;;;;;;8262335;28;20033;-60
2022/10/26 06:54:40;;;;;;;3.95;1.90;;;;;;;;;;8262715;28;20524;-60
2022/10/26 06:58:40;;;;;;;4.32;1.73;;;;;;;;;;8261744;28;20364;-61
2022/10/26 07:02:41;;;;;;;5.03;2.15;;;;;;;;;;8260492;28;20041;-60
2022/10/26 07:06:41;;;;;;;4.30;2.13;;;;;;;;;;8261323;28;20026;-61
2022/10/26 07:10:42;;;;;;;6.97;2.33;;;;;;;;;;8263734;28;20033;-66
2022/10/26 07:14:42;;;;;;;5.28;1.80;;;;;;;;;;8259033;28;20748;-61
2022/10/26 07:18:42;;;;;;;4.47;1.90;;;;;;;;;;8259756;28;20187;-61
2022/10/26 07:22:43;;;;;;;4.53;1.98;;;;;;;;;;8264093;28;20029;-61
2022/10/26 07:26:43;;;;;;;4.47;1.97;;;;;;;;;;8262365;28;20505;-61
2022/10/26 07:30:43;;;;;;;5.80;2.08;;;;;;;;;;8261699;28;20280;-61
2022/10/26 07:34:43;;;;;;;5.78;2.05;;;;;;;;;;8260786;28;20573;-61
2022/10/26 07:38:43;;;;;;;4.63;1.88;;;;;;;;;;8258906;28;20391;-61
2022/10/26 07:42:43;;;;;;;7.22;2.35;;;;;;;;;;8262203;28;20239;-61
2022/10/26 07:46:44;;;;;;;3.33;1.60;;;;;;;;;;8259616;28;20037;-61
2022/10/26 07:50:44;;;;;;;6.47;2.25;;;;;;;;;;8260765;28;20159;-61
2022/10/26 07:54:44;;;;;;;4.80;1.85;;;;;;;;;;8259084;28;20028;-62
2022/10/26 07:58:44;;;;;;;4.90;1.80;;;;;;;;;;8260457;28;20343;-62
2022/10/26 08:02:44;;;;;;;3.03;1.55;;;;;;;;;;8259143;28;20046;-61
2022/10/26 08:06:46;;;;;;;7.65;1.88;;;;;;;;;;8261194;28;20026;-61
2022/10/26 08:10:46;;;;;;;5.35;1.80;;;;;;;;;;8262422;28;20026;-61
2022/10/26 08:14:46;;;;;;;6.80;1.85;;;;;;;;;;8258628;28;20040;-62
2022/10/26 08:18:47;;;;;;;5.63;1.60;;;;;;;;;;8262198;28;20033;-62
2022/10/26 08:22:47;;;;;;;9.93;2.08;;;;;;;;;;8260646;28;20272;-62
2022/10/26 08:26:47;;;;;;;8.60;1.40;;;;;;;;;;8259657;28;20028;-62
2022/10/26 08:30:48;;;;;;;6.50;1.77;;;;;;;;;;8261820;28;20041;-62
2022/10/26 08:34:48;;;;;;;7.25;1.80;;;;;;;;;;8259599;28;20307;-62
2022/10/26 08:38:48;;;;;;;4.90;1.90;;;;;;;;;;8259438;28;20084;-61
2022/10/26 08:42:51;;;;;;;4.50;1.70;;;;;;;;;;8260038;28;20044;-61
2022/10/26 08:46:54;;;;;;;3.30;1.70;;;;;;;;;;8260324;28;20060;-61
2022/10/26 08:50:55;;;;;;;5.07;1.60;;;;;;;;;;8259678;28;20598;-62
2022/10/26 08:54:57;;;;;;;3.05;1.80;;;;;;;;;;8264006;28;20139;-61
2022/10/26 08:59:04;;;;;;;6.60;1.90;;;;;;;;;;8265152;28;20026;-61
2022/10/26 09:03:12;;;;;;;4.97;1.90;;;;;;;;;;8265569;28;20560;-61
2022/10/26 09:07:51;;;;;;;10.15;2.00;;;;;;;;;;8266798;28;20219;-60
2022/10/26 09:12:06;;;;;;;7.30;2.15;;;;;;;;;;8265520;28;20946;-61
2022/10/26 09:16:18;;;;;;;5.45;1.88;;;;;;;;;;8265085;28;20038;-61
2022/10/26 09:20:34;;;;;;;6.53;2.10;;;;;;;;;;8265986;28;20018;-61
2022/10/26 09:24:38;;;;;;;7.88;1.83;;;;;;;;;;8267131;28;20442;-61
2022/10/26 09:28:39;;;;;;;6.65;2.08;;;;;;;;;;8266347;28;20058;-61
2022/10/26 09:32:43;;;;;;;5.97;1.92;;;;;;;;;;8261874;28;20351;-61
2022/10/26 09:36:43;;;;;;;;;;;;;;;;;;8260016;28;20030;-61
2022/10/26 09:40:46;;;;;;;6.15;1.80;;;;;;;;;;8265349;28;20376;-61
2022/10/26 09:44:53;;;;;;;4.60;1.65;;;;;;;;;;8265310;28;20562;-62
2022/10/26 09:48:55;;;;;;;4.05;1.77;;;;;;;;;;8264476;28;20384;-63
2022/10/26 09:52:55;;;;;;;6.38;2.20;;;;;;;;;;8263333;28;20850;-61
2022/10/26 09:56:58;;;;;;;5.32;1.83;;;;;;;;;;8265391;28;20058;-62
2022/10/26 10:00:59;;;;;;;4.75;2.17;;;;;;;;;;8264239;28;20030;-61
2022/10/26 10:04:59;;;;;;;6.43;2.15;;;;;;;;;;8263425;28;20136;-61
2022/10/26 10:09:04;;;;;;;7.80;1.95;;;;;;;;;;8263931;28;20112;-61
2022/10/26 10:13:15;;;;;;;7.90;2.20;;;;;;;;;;8262456;28;20495;-61
2022/10/26 10:17:19;;;;;;;4.63;1.75;;;;;;;;;;8262912;28;20188;-61
2022/10/26 10:21:20;;;;;;;7.30;2.30;;;;;;;;;;8264997;28;20182;-61
2022/10/26 10:25:22;;;;;;;8.50;1.95;;;;;;;;;;8263692;28;20076;-62
2022/10/26 10:29:24;;;;;;;6.57;1.95;;;;;;;;;;8261467;28;20439;-62
2022/10/26 10:33:31;;;;;;;7.53;2.10;;;;;;;;;;8262165;28;20061;-61
2022/10/26 10:37:41;;;;;;;7.80;1.90;;;;;;;;;;8263703;28;20010;-61
2022/10/26 10:41:43;;;;;;;7.20;2.40;;;;;;;;;;8261454;28;20082;-62
2022/10/26 10:45:47;;;;;;;5.78;1.80;;;;;;;;;;8263506;28;20037;-61
2022/10/26 10:49:56;;;;;;;7.43;2.13;;;;;;;;;;8263014;28;20032;-63
2022/10/26 10:53:56;;;;;;;6.65;2.10;;;;;;;;;;8262330;28;21229;-61
2022/10/26 10:58:18;;;;;;;5.57;2.30;;;;;;;;;;8255153;28;21638;-61
2022/10/26 11:02:37;;;;;;;7.88;2.10;;;;;;;;;;8263186;28;20068;-61
2022/10/26 11:06:39;;;;;;;8.38;2.40;;;;;;;;;;8261935;28;20499;-62
2022/10/26 11:10:41;;;;;;;4.25;1.90;;;;;;;;;;8257420;28;20344;-61
2022/10/26 11:14:43;;;;;;;7.07;2.10;;;;;;;;;;8259885;28;20018;-60
2022/10/26 11:18:46;;;;;;;5.63;1.90;;;;;;;;;;8262571;28;20137;-62
2022/10/26 11:22:54;;;;;;;11.75;2.47;;;;;;;;;;8266831;28;20029;-62
2022/10/26 11:26:58;;;;;;;4.95;2.20;;;;;;;;;;8267678;28;20260;-61
2022/10/26 11:31:02;;;;;;;5.35;1.83;;;;;;;;;;8265459;28;20451;-62
2022/10/26 11:35:02;;;;;;;5.65;1.60;;;;;;;;;;8258044;28;20300;-62
2022/10/26 11:39:22;;;;;;;6.72;1.83;;;;;;;;;;8266608;28;20577;-61
2022/10/26 11:43:29;;;;;;;3.92;1.67;;;;;;;;;;8267052;28;20021;-61
2022/10/26 11:47:39;;;;;;;5.90;1.80;;;;;;;;;;8265075;28;20148;-61
2022/10/26 11:51:45;;;;;;;9.40;2.08;;;;;;;;;;8265822;28;20033;-60
2022/10/26 11:55:51;;;;;;;5.60;1.80;;;;;;;;;;8265750;28;20028;-61
2022/10/26 11:59:53;;;;;;;7.43;1.88;;;;;;;;;;8270016;28;20026;-61
2022/10/26 12:03:56;;;;;;;6.05;1.75;;;;;;;;;;8264999;28;20522;-60
2022/10/26 12:07:59;;;;;;;8.90;1.90;;;;;;;;;;8262812;28;21024;-61
2022/10/26 12:12:05;;;;;;;4.78;1.52;;;;;;;;;;8261522;28;20179;-61
2022/10/26 12:16:10;;;;;;;3.22;1.50;;;;;;;;;;8258100;28;21002;-60
2022/10/26 12:20:10;;;;;;;5.85;1.52;;;;;;;;;;8261217;28;20434;-61
2022/10/26 12:24:23;;;;;;;3.10;1.40;;;;;;;;;;8260715;28;20563;-60
2022/10/26 12:28:43;;;;;;;4.47;1.80;;;;;;;;;;8257072;28;20465;-61
2022/10/26 12:32:43;;;;;;;5.10;1.60;;;;;;;;;;8256300;28;20025;-61
2022/10/26 12:36:46;;;;;;;4.57;1.55;;;;;;;;;;8261548;28;20048;-61
2022/10/26 12:40:47;;;;;;;6.68;1.80;;;;;;;;;;8275476;28;20867;-61
2022/10/26 12:44:47;;;;;;;4.40;1.73;;;;;;;;;;8264324;28;20418;-61
2022/10/26 12:48:48;;;;;;;4.32;1.63;;;;;;;;;;8264584;28;20041;-61
2022/10/26 12:53:07;;;;;;;5.95;1.50;;;;;;;;;;8264653;28;20062;-61
2022/10/26 12:57:16;;;;;;;3.38;1.65;;;;;;;;;;8268087;28;20021;-61
2022/10/26 13:01:27;;;;;;;5.30;1.65;;;;;;;;;;8265948;28;20562;-61
2022/10/26 13:05:46;;;;;;;4.22;1.35;;;;;;;;;;8268388;28;20034;-61
2022/10/26 13:09:55;;;;;;;5.28;1.30;;;;;;;;;;8264358;28;20021;-61
2022/10/26 13:14:03;;;;;;;4.50;1.60;;;;;;;;;;8267260;28;20282;-62
2022/10/26 13:18:16;;;;;;;5.90;1.83;;;;;;;;;;8265213;28;20556;-61
2022/10/26 13:22:20;;;;;;;4.45;1.42;;;;;;;;;;8266766;28;20018;-62
2022/10/26 13:26:23;;;;;;;4.20;1.60;;;;;;;;;;8260106;28;20473;-61
2022/10/26 13:30:37;;;;;;;3.50;1.38;;;;;;;;;;8260551;28;20112;-60
2022/10/26 13:34:39;;;;;;;7.53;1.60;;;;;;;;;;8258483;28;20021;-61
2022/10/26 13:38:39;;;;;;;4.00;1.30;;;;;;;;;;8263033;28;20119;-61
2022/10/26 13:42:43;;;;;;;5.45;1.73;;;;;;;;;;8266129;28;20036;-60
2022/10/26 13:46:45;;;;;;;5.38;1.33;;;;;;;;;;8264102;28;20033;-60
2022/10/26 13:50:48;;;;;;;4.10;1.60;;;;;;;;;;8260531;28;20037;-61
2022/10/26 13:55:00;;;;;;;7.55;1.60;;;;;;;;;;8261374;28;20861;-61
2022/10/26 13:59:02;;;;;;;3.78;1.63;;;;;;;;;;8261566;28;20412;-62
2022/10/26 14:03:12;;;;;;;2.42;1.20;;;;;;;;;;8262594;28;20048;-62
2022/10/26 14:07:19;;;;;;;3.47;1.35;;;;;;;;;;8262724;28;20025;-62
2022/10/26 14:11:21;;;;;;;5.82;2.15;;;;;;;;;;8260660;28;20530;-62
2022/10/26 14:15:23;;;;;;;7.18;1.50;;;;;;;;;;8259945;28;20322;-61
2022/10/26 14:19:26;;;;;;;5.80;1.40;;;;;;;;;;8260346;28;20040;-61
2022/10/26 14:23:43;;;;;;;7.72;1.73;;;;;;;;;;8261521;28;20839;-60
2022/10/26 14:27:44;;;;;;;3.05;1.42;;;;;;;;;;8260520;28;20163;-60
2022/10/26 14:31:44;;;;;;;5.70;1.70;;;;;;;;;;8261290;28;20352;-60
2022/10/26 14:35:45;;;;;;;3.28;1.60;;;;;;;;;;8260863;28;20099;-60
2022/10/26 14:39:46;;;;;;;4.82;1.60;;;;;;;;;;8261014;28;20025;-60
2022/10/26 14:43:47;;;;;;;6.55;1.35;;;;;;;;;;8260329;28;20742;-60
2022/10/26 14:47:47;;;;;;;8.65;1.40;;;;;;;;;;8260063;28;20536;-60
2022/10/26 14:51:48;;;;;;;3.35;1.50;;;;;;;;;;8260637;28;20070;-60
2022/10/26 14:55:50;;;;;;;1.70;1.30;;;;;;;;;;8261848;28;20152;-60
2022/10/26 14:59:59;;;;;;;9.18;1.48;;;;;;;;;;8261086;28;20037;-61
2022/10/26 15:04:00;;;;;;;3.80;1.33;;;;;;;;;;8259756;28;20112;-60
2022/10/26 15:08:02;;;;;;;3.63;1.40;;;;;;;;;;8259028;28;20119;-60
2022/10/26 15:12:03;;;;;;;7.30;1.45;;;;;;;;;;8257544;28;20029;-61
2022/10/26 15:16:08;;;;;;;3.78;1.15;;;;;;;;;;8259495;28;20059;-62
2022/10/26 15:20:27;;;;;;;3.85;1.30;;;;;;;;;;8257440;28;20533;-62
2022/10/26 15:24:27;;;;;;;2.35;1.30;;;;;;;;;;8265166;28;20182;-62
2022/10/26 15:28:29;;;;;;;5.07;1.63;;;;;;;;;;8260538;28;20984;-62
2022/10/26 15:32:31;;;;;;;5.82;1.45;;;;;;;;;;8261259;28;20045;-62
2022/10/26 15:36:32;;;;;;;3.42;1.40;;;;;;;;;;8262997;28;20054;-61
2022/10/26 15:40:32;;;;;;;2.47;1.30;;;;;;;;;;8264309;28;20679;-61
2022/10/26 15:44:32;;;;;;;5.90;1.40;;;;;;;;;;8263140;28;20067;-62
2022/10/26 15:48:34;;;;;;;3.63;1.42;;;;;;;;;;8261751;28;20041;-62
2022/10/26 15:52:34;;;;;;;2.95;1.30;;;;;;;;;;8261219;28;20419;-62
2022/10/26 15:56:35;;;;;;;8.18;1.30;;;;;;;;;;8261861;28;20536;-61
2022/10/26 16:00:35;;;;;;;4.20;1.40;;;;;;;;;;8259875;28;20843;-62
2022/10/26 16:04:35;;;;;;;2.50;1.43;;;;;;;;;;8261428;28;20268;-62
2022/10/26 16:08:35;;;;;;;1.83;1.00;;;;;;;;;;8260342;28;20021;-60
2022/10/26 16:12:36;;;;;;;3.10;1.40;;;;;;;;;;8260530;28;20092;-60
2022/10/26 16:16:36;;;;;;;5.97;1.20;;;;;;;;;;8258972;28;20041;-60
2022/10/26 16:20:36;;;;;;;3.92;1.30;;;;;;;;;;8258687;28;20095;-61
2022/10/26 16:24:36;;;;;;;4.13;1.52;;;;;;;;;;8266236;28;20026;-61
2022/10/26 16:28:37;;;;;;;5.65;1.40;;;;;;;;;;8257443;28;20033;-61
2022/10/26 16:32:37;;;;;;;5.03;1.52;;;;;;;;;;8257044;28;20534;-61
2022/10/26 16:36:37;;;;;;;4.18;1.38;;;;;;;;;;8256791;28;20550;-61
2022/10/26 16:40:41;;;;;;;2.70;1.35;;;;;;;;;;8256204;28;20067;-61
2022/10/26 16:44:41;;;;;;;;;;;;;;;;;;8258644;28;20050;-61
2022/10/26 16:48:42;;;;;;;4.32;1.45;;;;;;;;;;8257682;28;20340;-61
2022/10/26 16:52:42;;;;;;;2.20;1.30;;;;;;;;;;8257383;28;20824;-61
2022/10/26 16:56:42;;;;;;;5.03;1.63;;;;;;;;;;8253742;28;20033;-61
2022/10/26 17:00:43;;;;;;;2.38;1.40;;;;;;;;;;8255796;28;20120;-60
2022/10/26 17:04:43;;;;;;;7.30;1.60;;;;;;;;;;8255136;28;20562;-66
2022/10/26 17:08:43;;;;;;;4.57;1.30;;;;;;;;;;8255489;28;20116;-61
2022/10/26 17:12:43;;;;;;;9.13;1.58;;;;;;;;;;8255985;28;20025;-61
2022/10/26 17:16:43;;;;;;;3.83;1.65;;;;;;;;;;8263136;28;20052;-61
2022/10/26 17:20:50;;;;;;;4.55;1.45;;;;;;;;;;8262607;28;20056;-60
2022/10/26 17:24:50;;;;;;;4.90;1.60;;;;;;;;;;8262379;28;20556;-60
2022/10/26 17:28:51;;;;;;;7.18;1.58;;;;;;;;;;8262758;28;20038;-61
2022/10/26 17:32:51;;;;;;;2.38;1.40;;;;;;;;;;8261572;28;20042;-60
2022/10/26 17:36:51;;;;;;;7.18;1.45;;;;;;;;;;8263662;28;20026;-60
2022/10/26 17:40:51;;;;;;;4.57;1.40;;;;;;;;;;8261580;28;20076;-60
2022/10/26 17:44:52;;;;;;;5.25;1.63;;;;;;;;;;8262370;28;20029;-60
2022/10/26 17:48:53;;;;;;;3.38;1.50;;;;;;;;;;8260778;28;20066;-61
2022/10/26 17:52:53;;;;;;;3.95;1.60;;;;;;;;;;8263362;28;20025;-61
2022/10/26 17:56:53;;;;;;;7.40;1.60;;;;;;;;;;8260784;28;20026;-60
2022/10/26 18:00:54;;;;;;;4.13;1.33;;;;;;;;;;8261139;28;20141;-61
2022/10/26 18:04:54;;;;;;;4.97;1.50;;;;;;;;;;8260641;28;20034;-62
2022/10/26 18:08:57;;;;;;;7.45;1.48;;;;;;;;;;8259903;28;20152;-61
2022/10/26 18:12:57;;;;;;;3.15;1.40;;;;;;;;;;8259583;28;20537;-60
2022/10/26 18:16:57;;;;;;;5.10;1.50;;;;;;;;;;8261137;28;20034;-61
2022/10/26 18:21:01;;;;;;;6.32;1.58;;;;;;;;;;8258773;28;20057;-61
2022/10/26 18:25:01;;;;;;;6.05;1.70;;;;;;;;;;8259815;28;20025;-60
2022/10/26 18:29:03;;;;;;;2.95;1.50;;;;;;;;;;8260977;28;20224;-61
2022/10/26 18:33:03;;;;;;;2.25;1.40;;;;;;;;;;8263495;28;20069;-61
2022/10/26 18:37:03;;;;;;;4.25;1.50;;;;;;;;;;8265223;28;20032;-60
2022/10/26 18:41:03;;;;;;;5.70;1.83;;;;;;;;;;8270904;28;20029;-61
2022/10/26 18:45:04;;;;;;;6.13;1.50;;;;;;;;;;8269740;28;20022;-62
2022/10/26 18:49:05;;;;;;;2.95;1.40;;;;;;;;;;8268824;28;20324;-61
2022/10/26 18:53:11;;;;;;;3.50;1.70;;;;;;;;;;8269030;28;20030;-61
2022/10/26 18:57:11;;;;;;;5.40;1.60;;;;;;;;;;8270879;28;20021;-61
2022/10/26 19:01:14;;;;;;;4.72;1.58;;;;;;;;;;8270107;28;20055;-60
2022/10/26 19:05:15;;;;;;;4.93;1.23;;;;;;;;;;8270320;28;20026;-62
2022/10/26 19:09:15;;;;;;;4.70;1.67;;;;;;;;;;8269007;28;20033;-61
2022/10/26 19:13:15;;;;;;;3.38;1.48;;;;;;;;;;8266660;28;20790;-62
2022/10/26 19:17:16;;;;;;;3.95;1.40;;;;;;;;;;8269757;28;21026;-62
2022/10/26 19:21:20;;;;;;;3.38;1.35;;;;;;;;;;8268474;28;20036;-62
2022/10/26 19:25:20;;;;;;;5.28;1.33;;;;;;;;;;8268414;28;20022;-61
2022/10/26 19:29:21;;;;;;;2.83;1.40;;;;;;;;;;8267846;28;20550;-62
2022/10/26 19:33:25;;;;;;;2.95;1.10;;;;;;;;;;8268179;28;20033;-61
2022/10/26 19:37:26;;;;;;;3.28;1.55;;;;;;;;;;8267770;28;20106;-61
2022/10/26 19:41:27;;;;;;;8.63;3.00;;;;;;;;;;8267754;28;20057;-61
2022/10/26 19:45:27;;;;;;;4.25;1.60;;;;;;;;;;8267901;28;20038;-61
2022/10/26 19:49:27;;;;;;;5.53;1.48;;;;;;;;;;8270218;28;20029;-61
2022/10/26 19:53:28;;;;;;;2.53;1.30;;;;;;;;;;8268811;28;20490;-63
2022/10/26 19:57:28;;;;;;;4.55;1.30;;;;;;;;;;8268167;28;20052;-61
2022/10/26 20:01:28;;;;;;;2.97;1.40;;;;;;;;;;8268811;28;20144;-61
2022/10/26 20:05:29;;;;;;;2.73;1.40;;;;;;;;;;8266435;28;20037;-61
2022/10/26 20:09:31;;;;;;;6.55;2.00;;;;;;;;;;8268694;28;20404;-60
2022/10/26 20:13:31;;;;;;;6.35;2.03;;;;;;;;;;8267214;28;20019;-60
2022/10/26 20:17:33;;;;;;;7.35;2.10;;;;;;;;;;8265630;28;20034;-62
2022/10/26 20:21:34;;;;;;;11.80;2.90;;;;;;;;;;8265548;28;20030;-62
2022/10/26 20:25:38;;;;;;;8.93;2.83;;;;;;;;;;8265629;28;20038;-61
2022/10/26 20:29:38;;;;;;;7.45;3.10;;;;;;;;;;8268281;28;20092;-61
2022/10/26 20:33:39;;;;;;;13.50;3.42;;;;;;;;;;8259156;28;20538;-61
2022/10/26 20:37:39;;;;;;;8.45;2.85;;;;;;;;;;8259571;28;20034;-61
2022/10/26 20:41:40;;;;;;;11.75;3.35;;;;;;;;;;8258529;28;20042;-61
2022/10/26 20:45:41;;;;;;;9.00;3.30;;;;;;;;;;8264829;28;20055;-62
2022/10/26 20:49:41;;;;;;;6.53;2.92;;;;;;;;;;8271260;28;20722;-61
2022/10/26 20:53:45;;;;;;;10.23;2.72;;;;;;;;;;8272207;28;20080;-61
2022/10/26 20:57:51;;;;;;;8.63;2.90;;;;;;;;;;8267058;28;20036;-62
2022/10/26 21:01:51;;;;;;;5.93;1.90;;;;;;;;;;8268679;28;20073;-61
2022/10/26 21:05:51;;;;;;;6.47;2.85;;;;;;;;;;8268093;28;20030;-60
2022/10/26 21:09:52;;;;;;;5.67;2.03;;;;;;;;;;8268753;28;20021;-60
2022/10/26 21:13:53;;;;;;;5.63;2.10;;;;;;;;;;8267449;28;20491;-61
2022/10/26 21:17:53;;;;;;;3.08;1.70;;;;;;;;;;8271282;28;20046;-61
2022/10/26 21:21:53;;;;;;;6.15;1.92;;;;;;;;;;8266791;28;20033;-62
2022/10/26 21:25:54;;;;;;;5.30;2.03;;;;;;;;;;8267816;28;20080;-61
2022/10/26 21:29:54;;;;;;;6.30;2.00;;;;;;;;;;8269104;28;20120;-62
2022/10/26 21:33:54;;;;;;;3.67;1.60;;;;;;;;;;8264717;28;20556;-62
2022/10/26 21:37:55;;;;;;;5.07;1.85;;;;;;;;;;8267035;28;20057;-61
2022/10/26 21:41:55;;;;;;;4.50;1.52;;;;;;;;;;8268660;28;20037;-62
2022/10/26 21:45:56;;;;;;;7.83;1.60;;;;;;;;;;8274210;28;20742;-61
2022/10/26 21:49:57;;;;;;;5.22;1.48;;;;;;;;;;8273215;28;20087;-61
2022/10/26 21:53:57;;;;;;;5.77;1.40;;;;;;;;;;8273886;28;20962;-61
2022/10/26 21:57:57;;;;;;;7.68;1.67;;;;;;;;;;8271722;28;20029;-62
2022/10/26 22:01:58;;;;;;;2.17;1.53;;;;;;;;;;8272634;28;20055;-62
2022/10/26 22:05:58;;;;;;;4.93;1.37;;;;;;;;;;8273245;28;20337;-62
2022/10/26 22:09:58;;;;;;;6.33;1.47;;;;;;;;;;8273664;28;20021;-61
2022/10/26 22:13:59;;;;;;;2.97;1.40;;;;;;;;;;8271960;28;20257;-61
2022/10/26 22:17:59;;;;;;;4.68;1.50;;;;;;;;;;8272305;28;20038;-61
2022/10/26 22:21:59;;;;;;;5.22;1.38;;;;;;;;;;8273173;28;20033;-62
2022/10/26 22:26:00;;;;;;;6.53;1.60;;;;;;;;;;8272199;28;20030;-61
2022/10/26 22:30:00;;;;;;;4.95;1.60;;;;;;;;;;8272512;28;20200;-61
2022/10/26 22:34:01;;;;;;;2.30;1.25;;;;;;;;;;8272959;28;20057;-61
2022/10/26 22:38:02;;;;;;;2.25;1.10;;;;;;;;;;8275037;28;20030;-62
2022/10/26 22:42:02;;;;;;;3.13;1.10;;;;;;;;;;8272678;28;20014;-62
2022/10/26 22:46:07;;;;;;;4.50;1.30;;;;;;;;;;8272934;28;20119;-62
2022/10/26 22:50:07;;;;;;;3.78;1.30;;;;;;;;;;8272724;28;20095;-62
2022/10/26 22:54:10;;;;;;;2.97;1.13;;;;;;;;;;8273033;28;20022;-63
2022/10/26 22:58:10;;;;;;;7.47;1.30;;;;;;;;;;8273552;28;20271;-62
2022/10/26 23:02:10;;;;;;;10.35;1.50;;;;;;;;;;8271674;28;20030;-61
2022/10/26 23:06:12;;;;;;;4.35;1.40;;;;;;;;;;8271646;28;20103;-61
2022/10/26 23:10:12;;;;;;;2.25;1.10;;;;;;;;;;8270752;28;20030;-62
2022/10/26 23:14:12;;;;;;;5.23;1.27;;;;;;;;;;8272065;28;20025;-61
2022/10/26 23:18:12;;;;;;;3.50;1.23;;;;;;;;;;8272098;28;20037;-62
2022/10/26 23:22:13;;;;;;;6.33;1.53;;;;;;;;;;8272745;28;20120;-61
2022/10/26 23:26:14;;;;;;;5.93;1.60;;;;;;;;;;8272828;28;20280;-62
2022/10/26 23:30:14;;;;;;;6.97;1.92;;;;;;;;;;8271633;28;20137;-62
2022/10/26 23:34:14;;;;;;;15.57;2.60;;;;;;;;;;8270931;28;20049;-62
2022/10/26 23:38:15;;;;;;;6.60;2.67;;;;;;;;;;8271322;28;20017;-62
2022/10/26 23:42:15;;;;;;;9.75;2.47;;;;;;;;;;8270950;28;20021;-61
2022/10/26 23:46:15;;;;;;;12.57;3.30;;;;;;;;;;8271815;28;20736;-61
2022/10/26 23:50:16;;;;;;;5.47;3.00;;;;;;;;;;8271179;28;20030;-62
2022/10/26 23:54:16;;;;;;;9.50;2.97;;;;;;;;;;8271514;28;20061;-61
2022/10/26 23:58:16;;;;;;;8.20;2.40;;;;;;;;;;8271140;28;20044;-62
